createdAt,value
2018-02-08T00:02:11.571Z,36.70
2018-02-08T00:04:39.081Z,38.90
2018-02-08T00:07:06.589Z,39.20
2018-02-08T00:09:34.113Z,37.27
2018-02-08T00:12:01.618Z,35.27
2018-02-08T00:14:29.390Z,36.17
2018-02-08T00:16:56.892Z,36.07
2018-02-08T00:19:24.415Z,31.60
2018-02-08T00:21:52.695Z,37.57
2018-02-08T00:24:20.998Z,38.27
2018-02-08T00:26:48.506Z,36.03
2018-02-08T00:29:16.029Z,36.20
2018-02-08T00:31:43.573Z,37.23
2018-02-08T00:34:11.094Z,40.30
2018-02-08T00:36:38.688Z,38.60
2018-02-08T00:39:06.209Z,37.57
2018-02-08T00:41:34.491Z,37.57
2018-02-08T00:44:02.078Z,38.87
2018-02-08T00:46:29.648Z,37.70
2018-02-08T00:48:57.176Z,41.40
2018-02-08T00:51:25.480Z,41.40
2018-02-08T00:53:53.009Z,37.43
2018-02-08T00:56:21.282Z,40.43
2018-02-08T00:58:49.590Z,40.57
2018-02-08T01:01:17.097Z,44.63
2018-02-08T01:03:44.705Z,43.60
2018-02-08T01:06:12.266Z,40.70
2018-02-08T01:08:39.822Z,40.00
2018-02-08T01:11:07.339Z,41.13
2018-02-08T01:13:35.261Z,39.80
2018-02-08T01:16:02.767Z,38.57
2018-02-08T01:18:30.302Z,43.83
2018-02-08T01:20:57.810Z,45.07
2018-02-08T01:23:26.190Z,41.97
2018-02-08T01:25:54.462Z,42.60
2018-02-08T01:28:22.754Z,42.93
2018-02-08T01:30:50.262Z,42.73
2018-02-08T01:33:17.796Z,43.67
2018-02-08T01:35:45.306Z,42.50
2018-02-08T01:38:12.861Z,41.27
2018-02-08T01:40:40.374Z,43.30
2018-02-08T01:43:07.916Z,43.37
2018-02-08T01:45:35.426Z,41.87
2018-02-08T01:48:02.955Z,44.30
2018-02-08T01:50:30.486Z,42.63
2018-02-08T01:52:58.014Z,40.27
2018-02-08T01:55:26.319Z,43.33
2018-02-08T01:57:53.835Z,46.03
2018-02-08T02:00:21.368Z,43.70
2018-02-08T02:02:48.874Z,40.90
2018-02-08T02:05:17.167Z,45.23
2018-02-08T02:07:44.669Z,42.90
2018-02-08T02:10:12.194Z,42.57
2018-02-08T02:12:39.784Z,42.77
2018-02-08T02:15:07.294Z,45.63
2018-02-08T02:17:35.578Z,43.40
2018-02-08T02:20:03.116Z,44.73
2018-02-08T02:22:31.394Z,43.50
2018-02-08T02:24:59.682Z,43.43
2018-02-08T02:27:27.190Z,42.33
2018-02-08T02:29:54.713Z,43.27
2018-02-08T02:32:22.261Z,44.33
2018-02-08T02:34:49.786Z,43.33
2018-02-08T02:37:17.294Z,43.37
2018-02-08T02:39:44.826Z,44.40
2018-02-08T02:42:13.119Z,43.30
2018-02-08T02:44:40.642Z,43.90
2018-02-08T02:47:08.922Z,43.80
2018-02-08T02:49:37.227Z,40.80
2018-02-08T02:52:04.734Z,44.07
2018-02-08T02:54:32.265Z,44.27
2018-02-08T02:56:59.777Z,43.47
2018-02-08T02:59:28.071Z,44.47
2018-02-08T03:01:55.573Z,44.80
2018-02-08T03:04:23.107Z,43.27
2018-02-08T03:06:50.655Z,46.80
2018-02-08T03:09:18.178Z,45.20
2018-02-08T03:11:45.769Z,43.57
2018-02-08T03:14:13.294Z,43.93
2018-02-08T03:16:41.575Z,44.10
2018-02-08T03:19:09.862Z,45.47
2018-02-08T03:21:38.165Z,44.67
2018-02-08T03:24:05.689Z,43.73
2018-02-08T03:26:33.968Z,45.00
2018-02-08T03:29:02.266Z,46.70
2018-02-08T03:31:29.769Z,44.13
2018-02-08T03:33:57.298Z,42.87
2018-02-08T03:36:25.121Z,44.90
2018-02-08T03:38:53.419Z,46.07
2018-02-08T03:41:21.698Z,46.37
2018-02-08T03:43:49.627Z,46.33
2018-02-08T03:46:17.137Z,43.10
2018-02-08T03:48:44.649Z,47.60
2018-02-08T03:51:12.169Z,40.97
2018-02-08T03:53:39.669Z,43.10
2018-02-08T03:56:07.189Z,46.77
2018-02-08T03:58:35.037Z,44.47
2018-02-08T04:01:02.570Z,43.77
2018-02-08T04:03:30.850Z,46.57
2018-02-08T04:05:58.383Z,49.07
2018-02-08T04:08:25.887Z,45.17
2018-02-08T04:10:53.418Z,46.67
2018-02-08T04:13:21.689Z,45.90
2018-02-08T04:15:49.974Z,45.17
2018-02-08T04:18:18.639Z,44.97
2018-02-08T04:20:46.230Z,45.13
2018-02-08T04:23:13.734Z,43.27
2018-02-08T04:25:41.266Z,45.93
2018-02-08T04:28:08.774Z,44.10
2018-02-08T04:30:36.365Z,46.60
2018-02-08T04:33:03.870Z,43.13
2018-02-08T04:35:31.406Z,45.17
2018-02-08T04:40:51.392Z,46.17
2018-02-08T04:43:30.651Z,43.77
2018-02-08T04:46:10.146Z,43.47
2018-02-08T04:48:38.418Z,44.57
2018-02-08T04:51:06.815Z,47.07
2018-02-08T04:53:34.317Z,46.50
2018-02-08T04:56:01.818Z,42.67
2018-02-08T04:58:30.207Z,46.70
2018-02-08T05:00:57.723Z,48.43
2018-02-08T05:03:25.241Z,45.13
2018-02-08T05:05:52.745Z,48.27
2018-02-08T05:08:20.278Z,47.20
2018-02-08T05:10:47.794Z,46.90
2018-02-08T05:13:15.314Z,45.93
2018-02-08T05:15:44.352Z,46.70
2018-02-08T05:18:11.882Z,47.10
2018-02-08T05:20:40.194Z,45.70
2018-02-08T05:23:07.717Z,44.90
2018-02-08T05:25:35.986Z,44.10
2018-02-08T05:28:03.515Z,45.00
2018-02-08T05:30:31.021Z,46.17
2018-02-08T05:32:59.301Z,47.20
2018-02-08T05:35:27.689Z,46.73
2018-02-08T05:37:55.257Z,43.90
2018-02-08T05:40:22.778Z,42.97
2018-02-08T05:42:50.367Z,43.60
2018-02-08T05:45:17.930Z,46.20
2018-02-08T05:47:45.440Z,45.93
2018-02-08T05:50:12.966Z,47.20
2018-02-08T05:52:40.770Z,42.20
2018-02-08T05:55:08.301Z,46.63
2018-02-08T05:57:35.819Z,45.87
2018-02-08T06:00:03.342Z,43.67
2018-02-08T06:02:32.798Z,45.23
2018-02-08T06:05:00.303Z,46.43
2018-02-08T06:07:29.338Z,46.83
2018-02-08T06:09:56.854Z,48.17
2018-02-08T06:12:24.383Z,48.93
2018-02-08T06:14:51.915Z,46.70
2018-02-08T06:17:19.442Z,44.87
2018-02-08T06:19:47.035Z,45.17
2018-02-08T06:22:14.590Z,46.07
2018-02-08T06:24:42.102Z,47.00
2018-02-08T06:27:09.626Z,45.77
2018-02-08T06:29:37.134Z,46.57
2018-02-08T06:32:04.654Z,48.50
2018-02-08T06:34:32.181Z,44.50
2018-02-08T06:36:59.702Z,46.87
2018-02-08T06:39:27.211Z,47.83
2018-02-08T06:41:54.730Z,46.03
2018-02-08T06:44:23.049Z,41.70
2018-02-08T06:46:50.583Z,46.87
2018-02-08T06:49:18.850Z,43.77
2018-02-08T06:51:47.187Z,44.00
2018-02-08T06:54:15.118Z,47.50
2018-02-08T06:56:42.691Z,44.73
2018-02-08T06:59:10.240Z,42.07
2018-02-08T07:01:37.794Z,46.23
2018-02-08T07:04:05.351Z,45.07
2018-02-08T07:06:32.849Z,44.73
2018-02-08T07:09:00.371Z,47.07
2018-02-08T07:11:27.877Z,45.50
2018-02-08T07:13:55.408Z,45.43
2018-02-08T07:16:22.933Z,44.27
2018-02-08T07:18:51.319Z,41.67
2018-02-08T07:21:18.829Z,45.27
2018-02-08T07:23:46.437Z,46.37
2018-02-08T07:26:13.945Z,42.63
2018-02-08T07:28:41.463Z,44.80
2018-02-08T07:31:09.014Z,45.10
2018-02-08T07:33:36.543Z,43.43
2018-02-08T07:36:04.050Z,44.53
2018-02-08T07:38:31.569Z,43.80
2018-02-08T07:40:59.862Z,43.67
2018-02-08T07:43:27.426Z,44.67
2018-02-08T07:45:54.991Z,42.43
2018-02-08T07:48:22.521Z,43.17
2018-02-08T07:50:50.790Z,43.00
2018-02-08T07:53:19.058Z,42.73
2018-02-08T07:55:46.583Z,45.80
2018-02-08T07:58:14.093Z,43.17
2018-02-08T08:00:42.381Z,44.33
2018-02-08T08:03:09.947Z,41.23
2018-02-08T08:05:37.470Z,44.40
2018-02-08T08:08:04.976Z,43.20
2018-02-08T08:10:32.506Z,45.00
2018-02-08T08:13:00.782Z,48.87
2018-02-08T08:15:29.069Z,43.20
2018-02-08T08:17:56.574Z,43.13
2018-02-08T08:20:24.098Z,45.83
2018-02-08T08:22:51.602Z,44.23
2018-02-08T08:25:19.135Z,45.00
2018-02-08T08:27:46.642Z,45.93
2018-02-08T08:30:14.934Z,44.30
2018-02-08T08:32:42.438Z,43.33
2018-02-08T08:35:09.966Z,43.67
2018-02-08T08:37:37.476Z,42.00
2018-02-08T08:40:05.003Z,44.43
2018-02-08T08:42:32.506Z,43.53
2018-02-08T08:45:00.790Z,46.10
2018-02-08T08:47:29.082Z,43.10
2018-02-08T08:49:56.602Z,43.37
2018-02-08T08:52:24.200Z,43.67
2018-02-08T08:54:51.726Z,44.90
2018-02-08T08:57:20.006Z,44.33
2018-02-08T08:59:48.310Z,45.37
2018-02-08T09:02:15.866Z,44.70
2018-02-08T09:04:43.385Z,43.30
2018-02-08T09:07:12.397Z,43.73
2018-02-08T09:09:40.694Z,44.80
2018-02-08T09:12:08.205Z,43.30
2018-02-08T09:14:35.730Z,43.27
2018-02-08T09:17:03.274Z,46.50
2018-02-08T09:19:30.801Z,45.40
2018-02-08T09:21:58.511Z,42.77
2018-02-08T09:24:26.038Z,43.00
2018-02-08T09:26:54.309Z,45.30
2018-02-08T09:29:22.598Z,45.00
2018-02-08T09:31:50.105Z,44.20
2018-02-08T09:34:17.622Z,45.70
2018-02-08T09:36:45.442Z,42.00
2018-02-08T09:39:14.469Z,41.37
2018-02-08T09:41:42.815Z,43.20
2018-02-08T09:44:10.309Z,48.07
2018-02-08T09:46:37.830Z,45.03
2018-02-08T09:49:05.327Z,43.27
2018-02-08T09:51:32.886Z,45.33
2018-02-08T09:54:00.395Z,42.67
2018-02-08T09:56:28.001Z,42.03
2018-02-08T09:58:55.510Z,44.70
2018-02-08T10:01:23.032Z,46.20
2018-02-08T10:03:50.530Z,42.13
2018-02-08T10:06:18.047Z,40.63
2018-02-08T10:08:45.554Z,42.90
2018-02-08T10:11:13.159Z,41.87
2018-02-08T10:13:40.670Z,42.97
2018-02-08T10:16:08.275Z,41.83
2018-02-08T10:18:35.788Z,40.40
2018-02-08T10:21:03.395Z,41.10
2018-02-08T10:23:30.899Z,42.10
2018-02-08T10:25:58.427Z,39.37
2018-02-08T10:28:25.961Z,42.87
2018-02-08T10:30:54.242Z,41.37
2018-02-08T10:33:21.747Z,39.10
2018-02-08T10:35:49.357Z,38.80
2018-02-08T10:38:16.862Z,41.03
2018-02-08T10:40:44.382Z,41.37
2018-02-08T10:43:11.885Z,37.47
2018-02-08T10:45:39.414Z,40.10
2018-02-08T10:48:06.918Z,39.40
2018-02-08T10:50:34.434Z,43.57
2018-02-08T10:53:01.938Z,41.20
2018-02-08T10:55:29.462Z,40.77
2018-02-08T10:57:56.986Z,39.67
2018-02-08T11:00:24.502Z,34.17
2018-02-08T11:02:52.003Z,38.57
2018-02-08T11:05:19.572Z,41.00
2018-02-08T11:07:47.070Z,38.00
2018-02-08T11:10:14.681Z,37.70
2018-02-08T11:12:42.246Z,38.40
2018-02-08T11:15:09.807Z,39.63
2018-02-08T11:17:37.326Z,37.37
2018-02-08T11:20:04.830Z,38.10
2018-02-08T11:22:32.341Z,39.03
2018-02-08T11:24:59.842Z,36.80
2018-02-08T11:27:27.394Z,37.23
2018-02-08T11:29:54.898Z,36.77
2018-02-08T11:32:22.418Z,39.90
2018-02-08T11:34:49.965Z,40.77
2018-02-08T11:37:17.476Z,35.73
2018-02-08T11:39:44.969Z,39.13
2018-02-08T11:42:13.251Z,39.37
2018-02-08T11:44:40.809Z,38.53
2018-02-08T11:47:09.085Z,39.37
2018-02-08T11:49:36.586Z,38.83
2018-02-08T11:52:04.210Z,37.00
2018-02-08T11:54:31.769Z,37.00
2018-02-08T11:56:59.335Z,40.20
2018-02-08T11:59:26.858Z,38.47
2018-02-08T12:01:54.355Z,34.57
2018-02-08T12:04:21.903Z,37.57
2018-02-08T12:06:49.465Z,38.07
2018-02-08T12:09:16.988Z,37.60
2018-02-08T12:11:44.499Z,36.90
2018-02-08T12:14:12.039Z,36.83
2018-02-08T12:16:39.557Z,37.33
2018-02-08T12:19:07.073Z,39.40
2018-02-08T12:21:34.577Z,36.43
2018-02-08T12:24:02.165Z,36.53
2018-02-08T12:26:29.666Z,38.07
2018-02-08T12:28:57.283Z,37.27
2018-02-08T12:31:24.777Z,37.13
2018-02-08T12:33:52.728Z,37.97
2018-02-08T12:36:20.308Z,37.77
2018-02-08T12:38:47.843Z,35.80
2018-02-08T12:41:15.397Z,39.97
2018-02-08T12:43:42.950Z,35.10
2018-02-08T12:46:10.514Z,37.50
2018-02-08T12:48:38.038Z,38.20
2018-02-08T12:51:05.630Z,37.67
2018-02-08T12:53:33.146Z,35.60
2018-02-08T12:56:00.646Z,36.30
2018-02-08T12:58:28.205Z,39.63
2018-02-08T13:00:55.767Z,37.70
2018-02-08T13:03:23.326Z,38.30
2018-02-08T13:05:50.823Z,34.73
2018-02-08T13:08:18.350Z,38.27
2018-02-08T13:10:46.324Z,34.50
2018-02-08T13:13:13.874Z,37.83
2018-02-08T13:15:41.378Z,38.03
2018-02-08T13:18:08.879Z,35.40
2018-02-08T13:20:36.397Z,41.30
2018-02-08T13:23:03.993Z,35.67
2018-02-08T13:25:32.273Z,38.30
2018-02-08T13:27:59.841Z,35.87
2018-02-08T13:30:27.362Z,36.73
2018-02-08T13:32:54.866Z,35.47
2018-02-08T13:35:22.414Z,32.70
2018-02-08T13:37:49.907Z,34.93
2018-02-08T13:40:22.095Z,33.77
2018-02-08T13:42:49.682Z,33.63
2018-02-08T13:45:17.962Z,34.80
2018-02-08T13:47:49.750Z,33.87
2018-02-08T13:50:18.179Z,35.20
2018-02-08T13:52:51.405Z,34.13
2018-02-08T13:55:24.570Z,33.83
2018-02-08T13:57:55.834Z,34.57
2018-02-08T14:00:28.965Z,35.10
2018-02-08T14:02:56.508Z,34.37
2018-02-08T14:05:24.864Z,36.10
2018-02-08T14:07:52.362Z,36.40
2018-02-08T14:10:19.890Z,31.37
2018-02-08T14:12:47.438Z,33.33
2018-02-08T14:15:14.954Z,30.50
2018-02-08T14:17:42.455Z,34.60
2018-02-08T14:20:10.119Z,37.20
2018-02-08T14:22:37.761Z,35.90
2018-02-08T14:25:06.058Z,35.80
2018-02-08T14:27:33.619Z,34.40
2018-02-08T14:30:01.135Z,33.00
2018-02-08T14:32:28.633Z,35.50
2018-02-08T14:34:56.154Z,31.30
2018-02-08T14:37:23.656Z,34.73
2018-02-08T14:39:51.239Z,34.67
2018-02-08T14:42:18.739Z,33.70
2018-02-08T14:44:47.006Z,34.20
2018-02-08T14:47:14.526Z,34.67
2018-02-08T14:49:42.031Z,34.80
2018-02-08T14:52:10.335Z,35.23
2018-02-08T14:54:37.837Z,35.77
2018-02-08T14:57:05.451Z,33.40
2018-02-08T14:59:33.014Z,34.77
2018-02-08T15:02:00.574Z,34.77
2018-02-08T15:04:28.090Z,37.10
2018-02-08T15:06:55.617Z,37.23
2018-02-08T15:09:23.146Z,41.50
2018-02-08T15:11:50.666Z,39.97
2018-02-08T15:14:18.172Z,38.20
2018-02-08T15:16:45.694Z,41.83
2018-02-08T15:19:13.969Z,42.50
2018-02-08T15:21:42.599Z,41.30
2018-02-08T15:24:10.110Z,41.73
2018-02-08T15:26:38.413Z,41.30
2018-02-08T15:29:05.957Z,40.10
2018-02-08T15:31:33.474Z,42.10
2018-02-08T15:34:00.977Z,42.60
2018-02-08T15:36:29.266Z,40.43
2018-02-08T15:38:56.822Z,42.17
2018-02-08T15:41:24.350Z,43.03
2018-02-08T15:43:51.853Z,40.90
2018-02-08T15:46:19.374Z,41.57
2018-02-08T15:48:47.646Z,40.63
2018-02-08T15:51:15.233Z,42.50
2018-02-08T15:53:42.793Z,43.77
2018-02-08T15:56:10.354Z,41.47
2018-02-08T15:58:37.882Z,43.53
2018-02-08T16:01:05.470Z,44.47
2018-02-08T16:03:32.986Z,43.57
2018-02-08T16:06:00.593Z,39.60
2018-02-08T16:08:28.115Z,43.60
2018-02-08T16:10:55.623Z,45.40
2018-02-08T16:13:23.175Z,47.37
2018-02-08T16:15:50.681Z,45.80
2018-02-08T16:18:18.206Z,46.37
2018-02-08T16:20:45.718Z,46.83
2018-02-08T16:23:14.016Z,49.87
2018-02-08T16:25:41.517Z,47.90
2018-02-08T16:28:09.133Z,48.27
2018-02-08T16:30:36.642Z,50.50
2018-02-08T16:33:04.250Z,53.13
2018-02-08T16:35:31.758Z,49.33
2018-02-08T16:37:59.282Z,47.77
2018-02-08T16:40:26.786Z,51.57
2018-02-08T16:42:54.385Z,52.60
2018-02-08T16:45:21.887Z,50.70
2018-02-08T16:47:49.411Z,48.03
2018-02-08T16:50:17.062Z,48.20
2018-02-08T16:52:44.590Z,45.80
2018-02-08T16:55:12.093Z,49.77
2018-02-08T16:57:39.613Z,48.30
2018-02-08T17:00:07.890Z,48.73
2018-02-08T17:02:36.181Z,50.47
2018-02-08T17:05:04.450Z,49.43
2018-02-08T17:07:32.744Z,49.67
2018-02-08T17:10:00.573Z,43.63
2018-02-08T17:12:28.866Z,48.60
2018-02-08T17:14:57.150Z,47.17
2018-02-08T17:17:25.549Z,47.53
2018-02-08T17:19:53.098Z,50.60
2018-02-08T17:22:20.617Z,47.77
2018-02-08T17:24:48.123Z,49.53
2018-02-08T17:27:15.654Z,50.77
2018-02-08T17:29:43.926Z,52.20
2018-02-08T17:32:12.217Z,49.63
2018-02-08T17:34:39.726Z,53.53
2018-02-08T17:37:07.241Z,50.70
2018-02-08T17:39:34.753Z,49.63
2018-02-08T17:42:02.578Z,53.50
2018-02-08T17:44:30.099Z,51.43
2018-02-08T17:46:58.371Z,53.20
2018-02-08T17:49:25.890Z,53.73
2018-02-08T17:51:53.398Z,51.57
2018-02-08T17:54:21.691Z,52.60
2018-02-08T17:56:49.207Z,49.30
2018-02-08T17:59:16.727Z,48.40
2018-02-08T18:01:44.233Z,54.23
2018-02-08T18:04:11.757Z,55.27
2018-02-08T18:06:39.258Z,52.17
2018-02-08T18:09:07.547Z,51.10
2018-02-08T18:11:35.822Z,52.27
2018-02-08T18:14:04.111Z,48.63
2018-02-08T18:16:31.618Z,47.40
2018-02-08T18:18:59.136Z,53.30
2018-02-08T18:21:26.647Z,50.87
2018-02-08T18:23:54.174Z,47.33
2018-02-08T18:26:21.683Z,53.27
2018-02-08T18:28:49.974Z,48.70
2018-02-08T18:31:17.494Z,47.23
2018-02-08T18:33:45.014Z,47.87
2018-02-08T18:36:12.517Z,48.60
2018-02-08T18:38:40.034Z,49.57
2018-02-08T18:41:08.699Z,46.70
2018-02-08T18:43:36.224Z,47.80
2018-02-08T18:46:03.727Z,44.97
2018-02-08T18:48:31.253Z,48.87
2018-02-08T18:50:59.533Z,48.37
2018-02-08T18:53:27.828Z,44.40
2018-02-08T18:55:55.347Z,46.00
2018-02-08T18:58:22.866Z,45.00
2018-02-08T19:00:50.386Z,46.80
2018-02-08T19:03:18.655Z,46.77
2018-02-08T19:05:46.942Z,47.13
2018-02-08T19:08:15.213Z,47.57
2018-02-08T19:10:43.502Z,44.73
2018-02-08T19:13:11.067Z,43.27
2018-02-08T19:15:38.591Z,46.50
2018-02-08T19:18:06.866Z,45.40
2018-02-08T19:20:34.391Z,44.83
2018-02-08T19:23:01.894Z,44.10
2018-02-08T19:25:30.290Z,47.33
2018-02-08T19:27:57.794Z,43.43
2018-02-08T19:30:25.309Z,44.77
2018-02-08T19:32:52.817Z,47.77
2018-02-08T19:35:20.343Z,42.73
2018-02-08T19:37:47.841Z,48.03
2018-02-08T19:40:15.358Z,45.23
2018-02-08T19:42:42.857Z,47.90
2018-02-08T19:45:10.377Z,47.63
2018-02-08T19:47:37.886Z,42.53
2018-02-08T19:50:06.173Z,45.50
2018-02-08T19:52:34.447Z,43.00
2018-02-08T19:55:02.752Z,44.90
2018-02-08T19:57:30.253Z,43.57
2018-02-08T19:59:57.762Z,43.70
2018-02-08T20:02:25.285Z,43.87
2018-02-08T20:04:52.786Z,43.80
2018-02-08T20:07:20.314Z,45.03
2018-02-08T20:09:48.582Z,44.50
2018-02-08T20:12:16.879Z,46.20
2018-02-08T20:14:46.850Z,48.50
2018-02-08T20:17:14.381Z,46.50
2018-02-08T20:19:41.886Z,43.23
2018-02-08T20:22:09.406Z,43.20
2018-02-08T20:24:36.916Z,42.97
2018-02-08T20:27:05.202Z,41.17
2018-02-08T20:29:33.473Z,42.57
2018-02-08T20:32:01.762Z,43.80
2018-02-08T20:34:29.265Z,45.23
2018-02-08T20:36:57.360Z,44.07
2018-02-08T20:39:24.867Z,46.57
2018-02-08T20:41:52.422Z,41.40
2018-02-08T20:44:19.962Z,40.70
2018-02-08T20:46:47.502Z,42.63
2018-02-08T20:49:15.118Z,43.30
2018-02-08T20:51:42.711Z,42.90
2018-02-08T20:54:10.306Z,40.47
2018-02-08T20:56:37.830Z,41.47
2018-02-08T20:59:05.462Z,43.23
2018-02-08T21:01:32.961Z,41.77
2018-02-08T21:04:01.254Z,43.00
2018-02-08T21:06:28.757Z,43.60
2018-02-08T21:08:56.278Z,43.80
2018-02-08T21:11:23.785Z,42.33
2018-02-08T21:13:51.306Z,41.97
2018-02-08T21:16:18.813Z,45.33
2018-02-08T21:18:46.334Z,45.43
2018-02-08T21:21:13.866Z,45.77
2018-02-08T21:23:41.382Z,47.23
2018-02-08T21:26:08.882Z,42.07
2018-02-08T21:28:36.397Z,43.73
2018-02-08T21:31:03.909Z,39.53
2018-02-08T21:33:31.438Z,44.83
2018-02-08T21:35:59.715Z,48.07
2018-02-08T21:38:28.032Z,41.60
2018-02-08T21:40:55.543Z,47.50
2018-02-08T21:43:23.830Z,48.40
2018-02-08T21:45:52.099Z,41.53
2018-02-08T21:48:20.422Z,40.47
2018-02-08T21:50:47.921Z,44.97
2018-02-08T21:53:15.436Z,51.83
2018-02-08T21:55:42.942Z,50.07
2018-02-08T21:58:10.466Z,47.50
2018-02-08T22:00:37.990Z,51.20
2018-02-08T22:03:05.500Z,48.53
2018-02-08T22:05:33.027Z,47.30
2018-02-08T22:08:00.537Z,47.63
2018-02-08T22:10:28.823Z,50.10
2018-02-08T22:12:57.091Z,49.60
2018-02-08T22:15:25.384Z,49.13
2018-02-08T22:17:53.654Z,47.63
2018-02-08T22:20:21.938Z,49.13
2018-02-08T22:22:49.438Z,50.37
2018-02-08T22:25:16.957Z,48.53
2018-02-08T22:27:44.475Z,48.43
2018-02-08T22:30:12.043Z,48.03
2018-02-08T22:32:40.394Z,48.80
2018-02-08T22:35:07.959Z,50.70
2018-02-08T22:37:35.505Z,45.23
2018-02-08T22:40:03.042Z,44.90
2018-02-08T22:42:30.551Z,48.20
2018-02-08T22:44:58.155Z,49.87
2018-02-08T22:47:25.715Z,50.17
2018-02-08T22:49:53.234Z,53.33
2018-02-08T22:52:20.739Z,48.07
2018-02-08T22:54:48.291Z,51.07
2018-02-08T22:57:15.798Z,50.27
2018-02-08T22:59:44.117Z,45.20
2018-02-08T23:02:11.626Z,48.10
2018-02-08T23:04:39.171Z,51.20
2018-02-08T23:07:06.687Z,49.37
2018-02-08T23:09:34.194Z,47.33
2018-02-08T23:12:01.710Z,48.13
2018-02-08T23:14:29.218Z,51.27
2018-02-08T23:16:56.738Z,46.27
2018-02-08T23:19:24.242Z,47.90
2018-02-08T23:21:51.843Z,48.10
2018-02-08T23:24:19.351Z,49.70
2018-02-08T23:26:46.884Z,44.70
2018-02-08T23:29:14.394Z,49.73
2018-02-08T23:31:42.683Z,48.47
2018-02-08T23:34:10.959Z,50.70
2018-02-08T23:36:39.246Z,48.70
2018-02-08T23:39:06.805Z,46.87
2018-02-08T23:41:34.330Z,51.80
2018-02-08T23:44:01.839Z,46.70
2018-02-08T23:46:29.358Z,52.57
2018-02-08T23:48:57.658Z,51.67
2018-02-08T23:51:25.934Z,46.37
2018-02-08T23:53:53.441Z,46.57
2018-02-08T23:56:21.053Z,49.00
2018-02-08T23:58:48.610Z,47.30
